createdAt,value
2018-05-08T00:01:52.306Z,19.33
2018-05-08T00:04:19.847Z,19.30
2018-05-08T00:06:47.372Z,19.31
2018-05-08T00:09:14.906Z,19.22
2018-05-08T00:11:42.461Z,19.19
2018-05-08T00:14:10.063Z,19.18
2018-05-08T00:16:37.609Z,19.16
2018-05-08T00:19:05.171Z,19.16
2018-05-08T00:21:32.943Z,19.14
2018-05-08T00:24:00.468Z,19.15
2018-05-08T00:26:28.018Z,19.10
2018-05-08T00:28:55.549Z,19.03
2018-05-08T00:31:23.117Z,18.98
2018-05-08T00:33:50.669Z,18.98
2018-05-08T00:36:18.186Z,18.97
2018-05-08T00:38:45.709Z,18.96
2018-05-08T00:41:13.214Z,18.93
2018-05-08T00:43:40.725Z,18.92
2018-05-08T00:46:08.293Z,18.93
2018-05-08T00:48:35.846Z,18.95
2018-05-08T00:51:03.424Z,18.93
2018-05-08T00:53:30.998Z,18.91
2018-05-08T00:55:58.779Z,18.89
2018-05-08T00:58:26.312Z,18.90
2018-05-08T01:00:53.841Z,18.87
2018-05-08T01:03:21.373Z,18.84
2018-05-08T01:05:48.911Z,18.80
2018-05-08T01:08:16.447Z,18.78
2018-05-08T01:10:43.967Z,18.79
2018-05-08T01:13:11.507Z,18.79
2018-05-08T01:15:39.294Z,18.76
2018-05-08T01:18:06.854Z,18.73
2018-05-08T01:20:34.360Z,18.75
2018-05-08T01:23:01.884Z,18.70
2018-05-08T01:25:29.706Z,18.70
2018-05-08T01:27:57.253Z,18.71
2018-05-08T01:30:24.765Z,18.66
2018-05-08T01:32:52.280Z,18.70
2018-05-08T01:35:19.785Z,18.60
2018-05-08T01:37:47.387Z,18.57
2018-05-08T01:40:15.170Z,18.53
2018-05-08T01:42:42.696Z,18.50
2018-05-08T01:45:10.276Z,18.53
2018-05-08T01:47:37.785Z,18.42
2018-05-08T01:50:05.356Z,18.39
2018-05-08T01:52:32.878Z,18.39
2018-05-08T01:55:00.450Z,18.35
2018-05-08T01:57:27.966Z,18.30
2018-05-08T01:59:55.537Z,18.25
2018-05-08T02:02:23.076Z,18.22
2018-05-08T02:04:50.672Z,18.26
2018-05-08T02:07:18.200Z,18.15
2018-05-08T02:09:45.769Z,18.13
2018-05-08T02:12:13.327Z,18.04
2018-05-08T02:14:40.920Z,18.01
2018-05-08T02:17:08.439Z,17.95
2018-05-08T02:19:35.986Z,17.97
2018-05-08T02:22:03.528Z,17.94
2018-05-08T02:24:31.100Z,17.90
2018-05-08T02:27:00.701Z,17.87
2018-05-08T02:29:28.236Z,17.88
2018-05-08T02:31:55.775Z,17.93
2018-05-08T02:34:23.320Z,17.84
2018-05-08T02:36:51.132Z,17.81
2018-05-08T02:39:18.758Z,17.80
2018-05-08T02:41:46.292Z,17.77
2018-05-08T02:44:13.837Z,17.67
2018-05-08T02:46:41.359Z,17.64
2018-05-08T02:49:09.125Z,17.68
2018-05-08T02:51:36.657Z,17.65
2018-05-08T02:54:04.214Z,17.63
2018-05-08T02:56:31.723Z,17.64
2018-05-08T02:58:59.251Z,17.64
2018-05-08T03:01:26.770Z,17.63
2018-05-08T03:03:54.289Z,17.57
2018-05-08T03:06:21.807Z,17.61
2018-05-08T03:08:49.359Z,17.56
2018-05-08T03:11:16.872Z,17.52
2018-05-08T03:13:44.407Z,17.49
2018-05-08T03:16:11.926Z,17.43
2018-05-08T03:18:39.749Z,17.39
2018-05-08T03:21:07.334Z,17.32
2018-05-08T03:23:34.845Z,17.29
2018-05-08T03:26:02.396Z,17.27
2018-05-08T03:28:29.897Z,17.30
2018-05-08T03:30:57.660Z,17.32
2018-05-08T03:33:25.169Z,17.35
2018-05-08T03:35:52.696Z,17.28
2018-05-08T03:38:20.544Z,17.33
2018-05-08T03:40:48.083Z,17.24
2018-05-08T03:43:15.625Z,17.25
2018-05-08T03:45:43.180Z,17.20
2018-05-08T03:48:10.998Z,17.21
2018-05-08T03:50:38.530Z,17.23
2018-05-08T03:53:06.091Z,17.23
2018-05-08T03:55:33.613Z,17.23
2018-05-08T03:58:01.133Z,17.23
2018-05-08T04:00:40.716Z,17.19
2018-05-08T04:03:20.214Z,17.22
2018-05-08T04:06:11.177Z,17.22
2018-05-08T04:08:38.695Z,17.15
2018-05-08T04:11:06.232Z,17.15
2018-05-08T04:13:34.012Z,17.12
2018-05-08T04:16:01.843Z,17.13
2018-05-08T04:18:29.427Z,17.20
2018-05-08T04:20:56.956Z,17.20
2018-05-08T04:23:24.508Z,17.28
2018-05-08T04:25:52.088Z,17.32
2018-05-08T04:28:19.604Z,17.25
2018-05-08T04:30:47.138Z,17.30
2018-05-08T04:33:14.766Z,17.37
2018-05-08T04:35:42.595Z,17.35
2018-05-08T04:38:10.114Z,17.35
2018-05-08T04:40:37.651Z,17.38
2018-05-08T04:43:05.174Z,17.41
2018-05-08T04:45:32.709Z,17.39
2018-05-08T04:48:00.222Z,17.36
2018-05-08T04:50:27.762Z,17.35
2018-05-08T04:52:55.295Z,17.35
2018-05-08T04:55:23.161Z,17.39
2018-05-08T04:57:50.741Z,17.43
2018-05-08T05:00:18.281Z,17.49
2018-05-08T05:02:45.838Z,17.54
2018-05-08T05:05:13.335Z,17.55
2018-05-08T05:07:41.172Z,17.54
2018-05-08T05:10:09.035Z,17.57
2018-05-08T05:12:36.597Z,17.55
2018-05-08T05:15:04.466Z,17.54
2018-05-08T05:17:32.016Z,17.57
2018-05-08T05:19:59.561Z,17.64
2018-05-08T05:22:27.071Z,17.64
2018-05-08T05:24:54.669Z,17.70
2018-05-08T05:27:22.200Z,17.77
2018-05-08T05:29:49.732Z,17.80
2018-05-08T05:32:17.600Z,17.79
2018-05-08T05:34:45.116Z,17.82
2018-05-08T05:37:12.918Z,17.85
2018-05-08T05:39:40.419Z,17.88
2018-05-08T05:42:07.962Z,17.95
2018-05-08T05:44:35.482Z,18.01
2018-05-08T05:47:03.046Z,17.93
2018-05-08T05:49:30.566Z,17.94
2018-05-08T05:51:58.095Z,17.98
2018-05-08T05:54:25.606Z,18.02
2018-05-08T05:56:53.175Z,18.16
2018-05-08T05:59:20.678Z,18.25
2018-05-08T06:01:48.303Z,18.23
2018-05-08T06:04:16.090Z,18.28
2018-05-08T06:06:43.600Z,18.35
2018-05-08T06:09:11.117Z,18.38
2018-05-08T06:11:38.631Z,18.40
2018-05-08T06:14:06.208Z,18.49
2018-05-08T06:16:34.107Z,18.62
2018-05-08T06:19:01.609Z,18.77
2018-05-08T06:21:29.272Z,18.96
2018-05-08T06:23:56.870Z,19.20
2018-05-08T06:26:24.439Z,19.54
2018-05-08T06:28:51.996Z,19.90
2018-05-08T06:31:19.539Z,20.29
2018-05-08T06:33:47.046Z,20.57
2018-05-08T06:36:14.890Z,20.78
2018-05-08T06:38:42.502Z,21.03
2018-05-08T06:41:10.349Z,21.27
2018-05-08T06:43:38.093Z,21.41
2018-05-08T06:46:06.595Z,21.73
2018-05-08T06:48:34.099Z,21.97
2018-05-08T06:51:01.636Z,22.22
2018-05-08T06:53:29.171Z,22.45
2018-05-08T06:55:56.703Z,22.84
2018-05-08T06:58:24.206Z,23.16
2018-05-08T07:00:52.137Z,23.31
2018-05-08T07:03:19.639Z,23.40
2018-05-08T07:05:47.165Z,23.65
2018-05-08T07:08:14.669Z,23.88
2018-05-08T07:10:42.180Z,23.90
2018-05-08T07:13:09.944Z,23.93
2018-05-08T07:15:37.847Z,23.91
2018-05-08T07:18:05.411Z,23.97
2018-05-08T07:20:33.138Z,23.93
2018-05-08T07:23:00.676Z,24.04
2018-05-08T07:25:28.196Z,24.14
2018-05-08T07:27:56.022Z,24.12
2018-05-08T07:30:23.525Z,24.09
2018-05-08T07:32:51.083Z,24.01
2018-05-08T07:35:19.011Z,23.97
2018-05-08T07:37:46.555Z,23.79
2018-05-08T07:40:14.049Z,23.56
2018-05-08T07:42:41.579Z,23.53
2018-05-08T07:45:09.125Z,23.23
2018-05-08T07:47:36.915Z,23.12
2018-05-08T07:50:04.427Z,22.94
2018-05-08T07:52:31.956Z,22.98
2018-05-08T07:54:59.733Z,22.97
2018-05-08T07:57:27.249Z,23.05
2018-05-08T07:59:55.075Z,23.33
2018-05-08T08:02:22.605Z,23.58
2018-05-08T08:04:50.136Z,23.85
2018-05-08T08:07:17.686Z,24.16
2018-05-08T08:09:45.204Z,24.55
2018-05-08T08:12:12.744Z,24.91
2018-05-08T08:14:40.268Z,25.11
2018-05-08T08:17:07.795Z,25.53
2018-05-08T08:19:35.493Z,26.06
2018-05-08T08:22:03.036Z,26.34
2018-05-08T08:24:30.562Z,26.67
2018-05-08T08:26:58.163Z,27.04
2018-05-08T08:29:26.367Z,27.41
2018-05-08T08:31:53.897Z,28.00
2018-05-08T08:34:21.409Z,28.36
2018-05-08T08:36:48.950Z,28.73
2018-05-08T08:39:16.483Z,28.85
2018-05-08T08:41:44.005Z,28.84
2018-05-08T08:44:11.511Z,28.58
2018-05-08T08:46:39.121Z,28.35
2018-05-08T08:49:06.955Z,28.16
2018-05-08T08:51:34.456Z,27.93
2018-05-08T08:54:01.974Z,28.09
2018-05-08T08:56:29.501Z,28.17
2018-05-08T08:58:57.039Z,28.03
2018-05-08T09:01:24.553Z,27.86
2018-05-08T09:03:52.095Z,28.06
2018-05-08T09:06:19.628Z,28.11
2018-05-08T09:08:47.163Z,27.95
2018-05-08T09:11:15.016Z,28.09
2018-05-08T09:13:42.624Z,28.32
2018-05-08T09:16:10.146Z,28.19
2018-05-08T09:18:38.274Z,28.27
2018-05-08T09:21:05.788Z,28.07
2018-05-08T09:23:33.731Z,28.27
2018-05-08T09:26:01.247Z,27.93
2018-05-08T09:28:28.786Z,27.47
2018-05-08T09:30:56.283Z,27.68
2018-05-08T09:33:23.818Z,27.20
2018-05-08T09:35:51.638Z,27.00
2018-05-08T09:38:19.175Z,26.71
2018-05-08T09:40:46.685Z,26.33
2018-05-08T09:43:14.224Z,26.02
2018-05-08T09:45:41.732Z,25.99
2018-05-08T09:48:09.255Z,26.03
2018-05-08T09:50:36.762Z,26.14
2018-05-08T09:53:04.567Z,26.03
2018-05-08T09:55:32.078Z,26.01
2018-05-08T09:57:59.597Z,25.89
2018-05-08T10:00:27.135Z,25.80
2018-05-08T10:02:54.646Z,25.71
2018-05-08T10:05:22.178Z,25.97
2018-05-08T10:07:49.712Z,25.94
2018-05-08T10:10:17.494Z,25.93
2018-05-08T10:12:45.017Z,25.91
2018-05-08T10:15:12.539Z,25.81
2018-05-08T10:17:40.083Z,25.76
2018-05-08T10:20:07.620Z,26.08
2018-05-08T10:22:35.202Z,26.17
2018-05-08T10:25:02.726Z,26.39
2018-05-08T10:27:30.269Z,26.77
2018-05-08T10:29:57.782Z,26.79
2018-05-08T10:32:25.290Z,27.42
2018-05-08T10:34:52.832Z,27.55
2018-05-08T10:37:20.436Z,27.35
2018-05-08T10:39:47.972Z,27.22
2018-05-08T10:42:15.496Z,27.26
2018-05-08T10:44:43.024Z,27.15
2018-05-08T10:47:10.637Z,27.02
2018-05-08T10:49:38.227Z,27.14
2018-05-08T10:52:06.024Z,27.37
2018-05-08T10:54:33.551Z,27.45
2018-05-08T10:57:01.090Z,27.67
2018-05-08T10:59:28.611Z,27.79
2018-05-08T11:01:56.125Z,27.52
2018-05-08T11:04:23.658Z,27.29
2018-05-08T11:06:51.172Z,26.63
2018-05-08T11:09:18.714Z,26.73
2018-05-08T11:11:46.230Z,26.97
2018-05-08T11:14:13.776Z,27.23
2018-05-08T11:16:41.293Z,27.44
2018-05-08T11:19:08.895Z,27.39
2018-05-08T11:21:36.418Z,27.84
2018-05-08T11:24:03.962Z,28.26
2018-05-08T11:26:31.848Z,28.52
2018-05-08T11:28:59.329Z,29.14
2018-05-08T11:31:27.194Z,29.23
2018-05-08T11:33:54.716Z,29.23
2018-05-08T11:36:22.231Z,29.32
2018-05-08T11:38:49.746Z,29.09
2018-05-08T11:41:17.246Z,29.65
2018-05-08T11:43:44.843Z,29.71
2018-05-08T11:46:12.355Z,30.09
2018-05-08T11:48:40.229Z,30.73
2018-05-08T11:51:07.745Z,31.76
2018-05-08T11:53:35.330Z,33.88
2018-05-08T11:56:02.841Z,35.86
2018-05-08T11:58:30.363Z,37.10
2018-05-08T12:00:57.945Z,38.53
2018-05-08T12:03:25.465Z,38.48
2018-05-08T12:05:53.040Z,40.01
2018-05-08T12:08:20.578Z,41.40
2018-05-08T12:10:48.096Z,42.28
2018-05-08T12:13:15.626Z,43.52
2018-05-08T12:15:43.177Z,43.06
2018-05-08T12:18:10.969Z,44.15
2018-05-08T12:20:38.518Z,43.34
2018-05-08T12:23:06.025Z,43.37
2018-05-08T12:25:33.563Z,44.28
2018-05-08T12:28:01.076Z,45.20
2018-05-08T12:30:28.654Z,45.27
2018-05-08T12:32:57.004Z,45.02
2018-05-08T12:35:24.541Z,45.18
2018-05-08T12:37:52.043Z,45.21
2018-05-08T12:40:19.627Z,44.85
2018-05-08T12:42:47.163Z,44.62
2018-05-08T12:45:14.699Z,44.15
2018-05-08T12:47:42.219Z,44.72
2018-05-08T12:50:09.734Z,44.91
2018-05-08T12:52:37.242Z,44.20
2018-05-08T12:55:04.775Z,44.63
2018-05-08T12:57:32.279Z,45.50
2018-05-08T12:59:59.797Z,46.00
2018-05-08T13:02:27.291Z,46.36
2018-05-08T13:04:55.359Z,46.12
2018-05-08T13:07:22.883Z,45.22
2018-05-08T13:09:50.445Z,45.47
2018-05-08T13:12:19.165Z,45.36
2018-05-08T13:14:46.818Z,44.87
2018-05-08T13:17:14.783Z,44.68
2018-05-08T13:19:42.287Z,44.88
2018-05-08T13:22:09.789Z,44.55
2018-05-08T13:24:37.306Z,45.11
2018-05-08T13:27:04.806Z,44.76
2018-05-08T13:29:32.386Z,44.69
2018-05-08T13:32:00.141Z,44.90
2018-05-08T13:34:28.000Z,45.78
2018-05-08T13:36:55.540Z,44.92
2018-05-08T13:39:23.046Z,44.10
2018-05-08T13:41:50.631Z,44.64
2018-05-08T13:44:18.550Z,44.44
2018-05-08T13:46:46.034Z,45.46
2018-05-08T13:49:13.558Z,45.61
2018-05-08T13:51:41.088Z,44.68
2018-05-08T13:54:08.707Z,44.35
2018-05-08T13:56:36.211Z,42.99
2018-05-08T13:59:03.732Z,42.41
2018-05-08T14:01:31.495Z,42.96
2018-05-08T14:03:59.114Z,42.76
2018-05-08T14:06:26.733Z,42.67
2018-05-08T14:08:54.470Z,41.91
2018-05-08T14:11:22.004Z,42.16
2018-05-08T14:13:49.584Z,41.74
2018-05-08T14:16:17.131Z,41.26
2018-05-08T14:18:44.976Z,41.39
2018-05-08T14:21:12.924Z,40.86
2018-05-08T14:23:40.486Z,40.94
2018-05-08T14:26:08.033Z,40.97
2018-05-08T14:28:35.541Z,40.43
2018-05-08T14:31:03.748Z,39.77
2018-05-08T14:33:31.281Z,38.44
2018-05-08T14:35:58.824Z,36.53
2018-05-08T14:38:26.654Z,36.22
2018-05-08T14:40:54.272Z,35.32
2018-05-08T14:43:21.797Z,34.54
2018-05-08T14:45:49.720Z,34.38
2018-05-08T14:48:17.358Z,33.82
2018-05-08T14:50:44.973Z,33.40
2018-05-08T14:53:13.461Z,32.93
2018-05-08T14:55:41.334Z,32.08
2018-05-08T14:58:08.835Z,31.53
2018-05-08T15:00:36.366Z,31.32
2018-05-08T15:03:04.176Z,30.94
2018-05-08T15:05:31.717Z,30.07
2018-05-08T15:07:59.236Z,29.81
2018-05-08T15:10:27.062Z,29.64
2018-05-08T15:12:54.566Z,29.40
2018-05-08T15:15:22.490Z,29.22
2018-05-08T15:17:50.258Z,28.69
2018-05-08T15:20:17.778Z,28.62
2018-05-08T15:22:46.951Z,28.36
2018-05-08T15:25:14.522Z,28.29
2018-05-08T15:27:42.046Z,28.27
2018-05-08T15:30:10.000Z,28.30
2018-05-08T15:32:37.770Z,28.32
2018-05-08T15:35:05.327Z,28.31
2018-05-08T15:37:32.881Z,28.22
2018-05-08T15:40:00.571Z,28.06
2018-05-08T15:42:28.141Z,28.12
2018-05-08T15:44:56.588Z,28.04
2018-05-08T15:47:24.178Z,27.99
2018-05-08T15:49:51.683Z,27.87
2018-05-08T15:52:19.266Z,27.76
2018-05-08T15:54:46.774Z,27.76
2018-05-08T15:57:14.298Z,27.69
2018-05-08T15:59:41.815Z,27.61
2018-05-08T16:02:09.670Z,27.56
2018-05-08T16:04:37.215Z,27.50
2018-05-08T16:07:05.056Z,27.39
2018-05-08T16:09:32.635Z,27.28
2018-05-08T16:12:00.225Z,27.18
2018-05-08T16:14:27.782Z,27.10
2018-05-08T16:16:55.379Z,27.00
2018-05-08T16:19:22.933Z,26.93
2018-05-08T16:21:50.496Z,26.86
2018-05-08T16:24:18.283Z,26.86
2018-05-08T16:26:45.862Z,26.81
2018-05-08T16:29:13.615Z,26.74
2018-05-08T16:31:41.170Z,26.65
2018-05-08T16:34:08.724Z,26.59
2018-05-08T16:36:36.261Z,26.55
2018-05-08T16:39:03.802Z,26.62
2018-05-08T16:41:31.349Z,26.59
2018-05-08T16:43:58.914Z,26.60
2018-05-08T16:46:26.469Z,26.52
2018-05-08T16:48:54.017Z,26.52
2018-05-08T16:51:21.870Z,26.43
2018-05-08T16:53:49.428Z,26.32
2018-05-08T16:56:16.976Z,26.32
2018-05-08T16:58:44.490Z,26.22
2018-05-08T17:01:12.035Z,26.28
2018-05-08T17:03:39.643Z,26.19
2018-05-08T17:06:07.220Z,26.07
2018-05-08T17:08:34.745Z,26.01
2018-05-08T17:11:02.274Z,25.89
2018-05-08T17:13:29.802Z,25.83
2018-05-08T17:15:57.338Z,25.79
2018-05-08T17:18:24.898Z,25.77
2018-05-08T17:20:52.484Z,25.68
2018-05-08T17:23:20.013Z,25.69
2018-05-08T17:25:47.525Z,25.64
2018-05-08T17:28:15.073Z,25.60
2018-05-08T17:30:42.647Z,25.52
2018-05-08T17:33:10.170Z,25.55
2018-05-08T17:35:37.795Z,25.52
2018-05-08T17:38:05.326Z,25.45
2018-05-08T17:40:33.230Z,25.37
2018-05-08T17:43:01.051Z,25.31
2018-05-08T17:45:28.573Z,25.29
2018-05-08T17:47:56.105Z,25.31
2018-05-08T17:50:23.628Z,25.28
2018-05-08T17:52:51.215Z,25.23
2018-05-08T17:55:18.731Z,25.16
2018-05-08T17:57:46.259Z,25.10
2018-05-08T18:00:13.773Z,25.11
2018-05-08T18:02:41.328Z,25.05
2018-05-08T18:05:08.864Z,25.05
2018-05-08T18:07:36.545Z,25.08
2018-05-08T18:10:04.399Z,24.98
2018-05-08T18:12:31.990Z,24.95
2018-05-08T18:14:59.514Z,24.94
2018-05-08T18:17:27.183Z,24.88
2018-05-08T18:19:54.706Z,24.85
2018-05-08T18:22:22.256Z,24.81
2018-05-08T18:24:49.840Z,24.78
2018-05-08T18:27:17.390Z,24.72
2018-05-08T18:29:44.903Z,24.70
2018-05-08T18:32:12.805Z,24.73
2018-05-08T18:34:40.385Z,24.68
2018-05-08T18:37:07.962Z,24.64
2018-05-08T18:39:35.523Z,24.56
2018-05-08T18:42:03.140Z,24.52
2018-05-08T18:44:30.806Z,24.45
2018-05-08T18:46:58.351Z,24.45
2018-05-08T18:49:25.969Z,24.42
2018-05-08T18:51:53.438Z,24.35
2018-05-08T18:54:20.949Z,24.29
2018-05-08T18:56:48.470Z,24.26
2018-05-08T18:59:16.017Z,24.23
2018-05-08T19:01:43.550Z,24.20
2018-05-08T19:04:11.230Z,24.17
2018-05-08T19:06:38.769Z,24.16
2018-05-08T19:09:06.415Z,24.14
2018-05-08T19:11:39.911Z,24.12
2018-05-08T19:14:07.493Z,24.08
2018-05-08T19:16:35.054Z,24.03
2018-05-08T19:19:08.269Z,23.97
2018-05-08T19:21:35.817Z,23.95
2018-05-08T19:24:08.944Z,23.91
2018-05-08T19:26:36.640Z,23.88
2018-05-08T19:29:09.662Z,23.85
2018-05-08T19:31:37.248Z,23.81
2018-05-08T19:34:04.790Z,23.85
2018-05-08T19:36:37.928Z,23.84
2018-05-08T19:39:06.571Z,23.81
2018-05-08T19:41:34.547Z,23.77
2018-05-08T19:44:02.141Z,23.75
2018-05-08T19:46:29.695Z,23.72
2018-05-08T19:48:57.227Z,23.67
2018-05-08T19:51:24.768Z,23.60
2018-05-08T19:53:52.329Z,23.56
2018-05-08T19:56:19.896Z,23.54
2018-05-08T19:58:47.610Z,23.49
2018-05-08T20:01:16.994Z,23.48
2018-05-08T20:03:44.560Z,23.44
2018-05-08T20:06:12.306Z,23.39
2018-05-08T20:08:39.840Z,23.37
2018-05-08T20:11:07.404Z,23.32
2018-05-08T20:13:34.982Z,23.28
2018-05-08T20:16:03.536Z,23.23
2018-05-08T20:18:32.765Z,23.28
2018-05-08T20:21:00.323Z,23.25
2018-05-08T20:23:27.934Z,23.22
2018-05-08T20:25:56.578Z,23.16
2018-05-08T20:28:24.337Z,23.08
2018-05-08T20:30:51.902Z,23.00
2018-05-08T20:33:19.660Z,22.96
2018-05-08T20:35:47.612Z,22.93
2018-05-08T20:38:15.176Z,22.91
2018-05-08T20:40:42.795Z,22.86
2018-05-08T20:43:10.411Z,22.81
2018-05-08T20:45:37.938Z,22.79
2018-05-08T20:48:05.457Z,22.75
2018-05-08T20:50:33.069Z,22.71
2018-05-08T20:53:00.578Z,22.70
2018-05-08T20:55:28.267Z,22.66
2018-05-08T20:57:55.763Z,22.59
2018-05-08T21:00:23.923Z,22.61
2018-05-08T21:02:53.912Z,22.61
2018-05-08T21:05:21.445Z,22.57
2018-05-08T21:07:49.239Z,22.50
2018-05-08T21:10:18.946Z,22.48
2018-05-08T21:12:48.467Z,22.46
2018-05-08T21:15:16.025Z,22.44
2018-05-08T21:17:43.901Z,22.41
2018-05-08T21:20:11.482Z,22.33
2018-05-08T21:22:39.244Z,22.31
2018-05-08T21:25:07.026Z,22.29
2018-05-08T21:27:40.906Z,22.27
2018-05-08T21:30:13.941Z,22.24
2018-05-08T21:32:41.486Z,22.20
2018-05-08T21:35:09.031Z,22.13
2018-05-08T21:37:36.622Z,22.12
2018-05-08T21:40:07.080Z,22.04
2018-05-08T21:42:34.614Z,22.01
2018-05-08T21:45:02.184Z,22.00
2018-05-08T21:47:29.734Z,21.99
2018-05-08T21:49:57.641Z,21.98
2018-05-08T21:52:25.190Z,21.96
2018-05-08T21:54:53.300Z,21.94
2018-05-08T21:57:21.608Z,21.93
2018-05-08T21:59:49.193Z,21.90
2018-05-08T22:02:17.233Z,21.87
2018-05-08T22:04:45.124Z,21.79
2018-05-08T22:07:12.634Z,21.78
2018-05-08T22:09:40.380Z,21.73
2018-05-08T22:12:07.899Z,21.69
2018-05-08T22:14:35.704Z,21.65
2018-05-08T22:17:03.266Z,21.61
2018-05-08T22:19:30.999Z,21.58
2018-05-08T22:21:58.536Z,21.58
2018-05-08T22:24:26.070Z,21.57
2018-05-08T22:26:53.587Z,21.54
2018-05-08T22:29:21.153Z,21.52
2018-05-08T22:31:48.775Z,21.51
2018-05-08T22:34:16.335Z,21.48
2018-05-08T22:36:43.848Z,21.46
2018-05-08T22:39:11.486Z,21.47
2018-05-08T22:41:39.069Z,21.43
2018-05-08T22:44:06.650Z,21.39
2018-05-08T22:46:34.256Z,21.36
2018-05-08T22:49:01.792Z,21.35
2018-05-08T22:51:29.324Z,21.32
2018-05-08T22:53:56.835Z,21.26
2018-05-08T22:56:24.371Z,21.23
2018-05-08T22:58:51.899Z,21.20
2018-05-08T23:01:19.409Z,21.18
2018-05-08T23:03:46.916Z,21.17
2018-05-08T23:06:14.680Z,21.12
2018-05-08T23:08:42.205Z,21.11
2018-05-08T23:11:09.753Z,21.13
2018-05-08T23:13:37.259Z,21.10
2018-05-08T23:16:04.783Z,21.09
2018-05-08T23:18:32.312Z,21.06
2018-05-08T23:20:59.869Z,21.01
2018-05-08T23:23:27.382Z,21.01
2018-05-08T23:25:54.983Z,21.05
2018-05-08T23:28:22.556Z,21.02
2018-05-08T23:30:50.105Z,21.02
2018-05-08T23:33:17.618Z,21.02
2018-05-08T23:35:45.169Z,21.03
2018-05-08T23:38:12.699Z,20.99
2018-05-08T23:40:40.226Z,20.95
2018-05-08T23:43:07.728Z,20.95
2018-05-08T23:45:35.664Z,20.93
2018-05-08T23:48:03.216Z,20.92
2018-05-08T23:50:30.740Z,20.89
2018-05-08T23:52:58.247Z,20.84
2018-05-08T23:55:25.805Z,20.84
2018-05-08T23:57:53.332Z,20.82
